Time;durP1;ratioP1;P1;durP2;ratioP2;P2;SDS_P1;SDS_P2;PMS_P1;PMS_P2;Temp;Humidity;BMP_temperature;BMP_pressure;BME280_temperature;BME280_humidity;BME280_pressure;Samples;Min_cycle;Max_cycle;Signal;HPM_P1;HPM_P2
2022/04/01 00:01:14;;;;;;;3.95;1.35;;;;;;;1.08;100.00;100909.63;5111629;28;20060;-27
2022/04/01 00:03:42;;;;;;;5.82;1.50;;;;;;;1.12;100.00;100897.94;5111780;28;20130;-26
2022/04/01 00:06:10;;;;;;;4.13;1.20;;;;;;;1.15;100.00;100902.13;5112014;28;20046;-27
2022/04/01 00:08:37;;;;;;;5.00;1.00;;;;;;;1.17;100.00;100900.00;5111871;28;20477;-26
2022/04/01 00:11:05;;;;;;;5.32;1.13;;;;;;;1.21;100.00;100892.94;5111753;28;20069;-29
2022/04/01 00:13:33;;;;;;;5.03;1.27;;;;;;;1.21;100.00;100902.00;5106416;28;20552;-27
2022/04/01 00:16:03;;;;;;;5.03;1.52;;;;;;;1.26;100.00;100898.56;5112944;28;20130;-34
2022/04/01 00:18:31;;;;;;;4.95;1.10;;;;;;;1.27;100.00;100902.97;5113619;28;20039;-26
2022/04/01 00:20:59;;;;;;;6.40;1.27;;;;;;;1.30;100.00;100905.25;5113052;28;20056;-28
2022/04/01 00:23:26;;;;;;;2.75;0.90;;;;;;;1.33;100.00;100902.88;5113370;28;20483;-28
2022/04/01 00:25:54;;;;;;;4.95;1.30;;;;;;;1.35;100.00;100906.22;5113020;28;20163;-26
2022/04/01 00:28:22;;;;;;;4.72;1.30;;;;;;;1.37;100.00;100898.59;5112743;28;20058;-23
2022/04/01 00:30:50;;;;;;;3.97;1.30;;;;;;;1.42;100.00;100906.09;5113243;27;20065;-28
2022/04/01 00:33:20;;;;;;;4.40;1.13;;;;;;;1.42;100.00;100910.75;5113458;28;20488;-28
2022/04/01 00:35:48;;;;;;;3.58;1.08;;;;;;;1.47;100.00;100908.13;5112689;28;20048;-26
2022/04/01 00:38:15;;;;;;;6.18;1.20;;;;;;;1.48;100.00;100907.06;5113134;28;20138;-30
2022/04/01 00:40:43;;;;;;;5.90;1.23;;;;;;;1.52;100.00;100911.84;5111038;28;20044;-25
2022/04/01 00:43:11;;;;;;;3.35;1.13;;;;;;;1.58;100.00;100905.41;5112817;28;20118;-26
2022/04/01 00:45:39;;;;;;;2.88;1.10;;;;;;;1.58;100.00;100910.06;5112044;28;20044;-27
2022/04/01 00:48:08;;;;;;;4.10;1.30;;;;;;;1.60;100.00;100900.47;5113327;28;20089;-24
2022/04/01 00:50:37;;;;;;;3.33;1.00;;;;;;;1.62;100.00;100905.75;5111255;28;20427;-26
2022/04/01 00:53:06;;;;;;;3.38;1.17;;;;;;;1.64;100.00;100920.94;5112819;28;20082;-28
2022/04/01 00:55:34;;;;;;;6.55;1.30;;;;;;;1.64;100.00;100904.44;5112048;28;20051;-24
2022/04/01 00:58:04;;;;;;;4.47;1.20;;;;;;;1.67;100.00;100914.97;5112923;28;20403;-26
2022/04/01 01:00:32;;;;;;;4.85;1.30;;;;;;;1.71;100.00;100915.31;5101668;28;20138;-29
2022/04/01 01:03:00;;;;;;;3.22;0.95;;;;;;;1.73;100.00;100921.44;5110694;28;20040;-34
2022/04/01 01:05:30;;;;;;;4.75;1.20;;;;;;;1.75;100.00;100913.78;5111800;28;20058;-26
2022/04/01 01:07:59;;;;;;;4.60;1.10;;;;;;;1.78;100.00;100918.81;5111313;28;20519;-27
2022/04/01 01:10:27;;;;;;;4.68;1.20;;;;;;;1.79;100.00;100916.88;5092074;28;20105;-25
2022/04/01 01:12:56;;;;;;;5.22;1.20;;;;;;;1.80;100.00;100908.38;5109545;28;20058;-25
2022/04/01 01:15:27;;;;;;;4.35;1.20;;;;;;;1.83;100.00;100915.31;5112336;28;20040;-24
2022/04/01 01:17:55;;;;;;;3.83;0.93;;;;;;;1.84;100.00;100917.81;5111860;28;20104;-29
2022/04/01 01:20:24;;;;;;;4.40;1.00;;;;;;;1.84;100.00;100906.81;5111054;28;20047;-28
2022/04/01 01:22:53;;;;;;;5.57;1.30;;;;;;;1.86;100.00;100914.84;5112454;28;20079;-28
2022/04/01 01:25:22;;;;;;;5.72;1.00;;;;;;;1.86;100.00;100918.41;5111928;28;20043;-29
2022/04/01 01:27:50;;;;;;;4.78;1.00;;;;;;;1.88;100.00;100921.78;5111244;28;20048;-30
2022/04/01 01:30:18;;;;;;;5.43;1.38;;;;;;;1.87;100.00;100927.50;5111039;28;20075;-23
2022/04/01 01:32:46;;;;;;;3.42;1.00;;;;;;;1.85;100.00;100924.16;5111607;28;20047;-28
2022/04/01 01:35:14;;;;;;;4.15;1.20;;;;;;;1.85;100.00;100924.16;5112057;28;20056;-28
2022/04/01 01:37:42;;;;;;;3.75;1.08;;;;;;;1.83;100.00;100929.06;5111459;28;20052;-29
2022/04/01 01:40:11;;;;;;;3.72;1.13;;;;;;;1.87;100.00;100924.75;5111254;28;20152;-24
2022/04/01 01:42:40;;;;;;;2.95;0.70;;;;;;;1.89;100.00;100922.63;5112276;28;20457;-28
2022/04/01 01:45:09;;;;;;;4.25;0.90;;;;;;;1.89;100.00;100931.69;5110178;28;20044;-31
2022/04/01 01:47:37;;;;;;;3.70;1.08;;;;;;;1.89;99.54;100926.19;5110789;28;20567;-27
2022/04/01 01:55:36;;;;;;;3.80;1.20;;;;;;;1.90;99.26;100925.13;5112199;28;20655;-27
2022/04/01 01:58:06;;;;;;;2.83;1.00;;;;;;;1.92;99.57;100920.22;5110686;28;20105;-24
2022/04/01 02:00:37;;;;;;;2.60;1.00;;;;;;;1.92;99.39;100930.38;5110200;28;20504;-29
2022/04/01 02:03:04;;;;;;;3.00;0.70;;;;;;;1.94;100.00;100926.31;5111132;28;20468;-28
2022/04/01 02:05:34;;;;;;;4.28;1.13;;;;;;;1.94;99.91;100931.00;5112417;28;20500;-25
2022/04/01 02:08:05;;;;;;;3.58;0.90;;;;;;;1.93;98.80;100929.31;5110080;28;20504;-26
2022/04/01 02:10:33;;;;;;;4.90;1.17;;;;;;;1.94;98.02;100936.50;5110612;28;20096;-26
2022/04/01 02:13:02;;;;;;;2.58;0.95;;;;;;;1.97;97.76;100936.03;5111260;28;20059;-25
2022/04/01 02:15:32;;;;;;;2.85;1.00;;;;;;;2.00;98.69;100932.75;5110489;28;20126;-28
2022/04/01 02:18:02;;;;;;;4.18;1.15;;;;;;;2.01;98.79;100943.53;5110831;28;20404;-27
2022/04/01 02:20:31;;;;;;;3.60;1.10;;;;;;;2.00;98.81;100946.50;5110011;28;20052;-29
2022/04/01 02:22:59;;;;;;;4.05;1.17;;;;;;;2.02;98.96;100938.84;5112006;28;20131;-28
2022/04/01 02:25:27;;;;;;;4.28;1.20;;;;;;;2.03;98.83;100938.63;5110213;28;20453;-28
2022/04/01 02:27:56;;;;;;;3.33;1.25;;;;;;;2.05;99.33;100950.22;5109964;28;20458;-27
2022/04/01 02:30:24;;;;;;;4.53;1.15;;;;;;;2.05;99.93;100955.72;5110512;28;20126;-29
2022/04/01 02:33:29;;;;;;;3.92;0.90;;;;;;;2.04;99.56;100953.22;5069119;28;20055;-28
2022/04/01 02:36:02;;;;;;;3.53;1.20;;;;;;;2.05;99.20;100961.25;5096451;28;20039;-28
2022/04/01 02:38:31;;;;;;;3.45;1.10;;;;;;;2.08;99.72;100957.16;5110532;28;20404;-26
2022/04/01 02:40:59;;;;;;;4.20;1.23;;;;;;;2.10;100.00;100960.53;5109332;28;20044;-26
2022/04/01 02:43:32;;;;;;;6.78;1.23;;;;;;;2.11;100.00;100959.44;5110707;28;20047;-26
2022/04/01 02:46:00;;;;;;;7.45;1.40;;;;;;;2.10;100.00;100963.28;5111568;28;20416;-27
2022/04/01 02:48:30;;;;;;;4.40;1.25;;;;;;;2.11;100.00;100970.47;5109259;28;20047;-26
2022/04/01 02:51:21;;;;;;;3.70;1.33;;;;;;;2.10;100.00;100982.53;5100343;28;20412;-27
2022/04/01 02:53:51;;;;;;;4.93;1.02;;;;;;;2.12;100.00;100974.03;5110496;28;20079;-27
2022/04/01 02:56:19;;;;;;;4.85;1.30;;;;;;;2.13;100.00;100972.97;5109308;28;20458;-31
2022/04/01 02:58:47;;;;;;;6.03;1.13;;;;;;;2.15;100.00;100974.41;5111363;28;20075;-27
2022/04/01 03:01:17;;;;;;;6.20;1.40;;;;;;;2.14;100.00;100981.00;5110374;28;20075;-28
2022/04/01 03:03:47;;;;;;;5.05;1.10;;;;;;;2.16;100.00;100984.34;5111535;28;20050;-27
2022/04/01 03:06:18;;;;;;;4.20;1.35;;;;;;;2.16;100.00;100978.84;5113892;28;20048;-28
2022/04/01 03:08:47;;;;;;;6.55;1.27;;;;;;;2.17;100.00;100969.50;5113617;28;20100;-27
2022/04/01 03:11:15;;;;;;;6.68;1.40;;;;;;;2.17;100.00;100988.78;5112714;28;20047;-30
2022/04/01 03:13:43;;;;;;;4.78;1.45;;;;;;;2.18;100.00;100990.44;5114052;28;20051;-28
2022/04/01 03:16:26;;;;;;;4.78;1.23;;;;;;;2.17;100.00;100988.78;5107206;28;20136;-28
2022/04/01 03:18:59;;;;;;;4.68;1.20;;;;;;;2.20;100.00;101004.78;5113823;28;20063;-26
2022/04/01 03:21:29;;;;;;;6.45;1.15;;;;;;;2.19;100.00;101000.38;5113450;28;20138;-26
2022/04/01 03:23:58;;;;;;;5.47;1.13;;;;;;;2.22;100.00;100994.38;5112538;28;20046;-32
2022/04/01 03:26:26;;;;;;;4.38;1.45;;;;;;;2.24;100.00;100997.72;5114777;27;20144;-27
2022/04/01 03:28:59;;;;;;;4.50;1.20;;;;;;;2.25;100.00;101006.81;5113616;28;20079;-30
2022/04/01 03:31:29;;;;;;;5.45;1.30;;;;;;;2.24;100.00;101008.72;5113703;28;20488;-26
2022/04/01 03:34:01;;;;;;;5.78;1.65;;;;;;;2.25;100.00;101018.66;5113225;28;20052;-25
2022/04/01 03:36:29;;;;;;;5.90;1.58;;;;;;;2.26;100.00;101020.34;5113654;28;20410;-27
2022/04/01 03:38:57;;;;;;;4.35;1.20;;;;;;;2.27;100.00;101034.94;5112122;28;20400;-30
2022/04/01 03:41:33;;;;;;;5.18;1.10;;;;;;;2.25;100.00;101031.59;5113323;28;20039;-29
2022/04/01 03:44:03;;;;;;;6.53;1.35;;;;;;;2.26;100.00;101033.28;5113213;28;20054;-32
2022/04/01 03:46:47;;;;;;;5.20;1.25;;;;;;;2.25;100.00;101028.84;5112509;28;20044;-28
2022/04/01 03:49:21;;;;;;;5.05;1.20;;;;;;;2.24;100.00;101030.75;5113022;28;20147;-29
2022/04/01 03:51:51;;;;;;;5.57;1.30;;;;;;;2.19;100.00;101044.44;5111468;28;20105;-23
2022/04/01 03:54:19;;;;;;;4.13;1.20;;;;;;;2.17;100.00;101052.09;5112186;28;20043;-28
2022/04/01 03:57:03;;;;;;;9.10;1.60;;;;;;;2.14;100.00;101059.97;5112869;28;20039;-30
2022/04/01 03:59:42;;;;;;;4.43;1.40;;;;;;;2.08;100.00;101054.34;5112644;28;20040;-26
2022/04/01 04:02:31;;;;;;;7.97;1.23;;;;;;;2.01;100.00;101052.75;5114305;28;20499;-23
2022/04/01 04:05:01;;;;;;;5.30;1.58;;;;;;;1.94;100.00;101052.91;5112643;28;20054;-28
2022/04/01 04:07:31;;;;;;;6.88;1.40;;;;;;;1.88;100.00;101055.75;5111550;28;20043;-29
2022/04/01 04:10:06;;;;;;;7.22;1.63;;;;;;;1.86;100.00;101064.25;5112719;28;20039;-29
2022/04/01 04:12:44;;;;;;;7.05;1.90;;;;;;;1.84;100.00;101065.56;5111705;28;20051;-26
2022/04/01 04:15:12;;;;;;;7.15;2.15;;;;;;;1.82;100.00;101068.53;5112395;28;20039;-26
2022/04/01 04:17:45;;;;;;;8.15;1.70;;;;;;;1.82;100.00;101067.69;5113537;28;20051;-27
2022/04/01 04:20:26;;;;;;;6.43;1.90;;;;;;;1.80;100.00;101072.63;5111888;28;20044;-25
2022/04/01 04:23:02;;;;;;;5.80;1.50;;;;;;;1.73;100.00;101091.97;5112326;28;20043;-27
2022/04/01 04:25:36;;;;;;;4.13;1.30;;;;;;;1.67;100.00;101080.00;5112444;28;20514;-26
2022/04/01 04:28:10;;;;;;;6.85;1.55;;;;;;;1.65;100.00;101086.81;5111321;28;20046;-28
2022/04/01 04:30:47;;;;;;;6.65;1.60;;;;;;;1.62;100.00;101079.00;5112318;28;20043;-28
2022/04/01 04:33:44;;;;;;;6.82;1.77;;;;;;;1.64;100.00;101091.47;5093761;28;20104;-26
2022/04/01 04:36:17;;;;;;;8.15;1.75;;;;;;;1.69;100.00;101088.84;5112103;28;20134;-25
2022/04/01 04:38:59;;;;;;;6.15;1.40;;;;;;;1.73;100.00;101089.22;5113303;28;20059;-31
2022/04/01 04:41:27;;;;;;;5.35;1.33;;;;;;;1.75;100.00;101094.50;5112507;28;20130;-30
2022/04/01 04:44:03;;;;;;;5.43;1.65;;;;;;;1.71;100.00;101100.47;5112024;28;20047;-26
2022/04/01 04:46:32;;;;;;;5.50;1.60;;;;;;;1.72;100.00;101088.38;5111997;28;20374;-26
2022/04/01 04:49:00;;;;;;;5.47;1.80;;;;;;;1.75;100.00;101100.84;5110853;28;20138;-27
2022/04/01 04:51:31;;;;;;;7.72;1.70;;;;;;;1.78;100.00;101108.63;5111719;28;20073;-28
2022/04/01 04:54:13;;;;;;;6.28;1.63;;;;;;;1.83;100.00;101099.63;5113164;28;20465;-23
2022/04/01 04:56:49;;;;;;;6.13;1.70;;;;;;;1.86;100.00;101100.00;5110760;28;20047;-24
2022/04/01 04:59:18;;;;;;;7.22;1.50;;;;;;;1.88;100.00;101108.88;5111469;28;20580;-28
2022/04/01 05:01:55;;;;;;;5.72;1.50;;;;;;;1.89;100.00;101110.56;5110574;28;20047;-29
2022/04/01 05:04:42;;;;;;;5.63;1.50;;;;;;;1.92;100.00;101107.34;5108610;27;20500;-24
2022/04/01 05:07:27;;;;;;;5.80;1.60;;;;;;;1.93;100.00;101122.78;5105252;28;20079;-28
2022/04/01 05:10:18;;;;;;;8.07;1.75;;;;;;;1.99;100.00;101121.84;5104006;28;20086;-26
2022/04/01 05:12:57;;;;;;;6.03;1.50;;;;;;;2.06;100.00;101111.53;5110292;28;20556;-26
2022/04/01 05:15:39;;;;;;;8.43;1.60;;;;;;;2.16;100.00;101118.38;5110174;28;20043;-28
2022/04/01 05:18:12;;;;;;;5.80;1.80;;;;;;;2.20;100.00;101123.16;5109517;28;20043;-24
2022/04/01 05:20:52;;;;;;;3.42;1.70;;;;;;;2.25;100.00;101123.28;5111403;28;20412;-29
2022/04/01 05:23:32;;;;;;;6.35;1.58;;;;;;;2.29;100.00;101132.75;5106927;28;20044;-27
2022/04/01 05:26:12;;;;;;;9.88;1.88;;;;;;;2.34;100.00;101132.06;5109328;28;20052;-28
2022/04/01 05:29:02;;;;;;;4.90;1.80;;;;;;;2.37;100.00;101135.16;5110647;28;20054;-23
2022/04/01 05:31:35;;;;;;;7.43;1.70;;;;;;;2.41;100.00;101136.34;5108716;28;20138;-29
2022/04/01 05:34:07;;;;;;;6.85;1.98;;;;;;;2.45;100.00;101141.38;5109990;28;20097;-25
2022/04/01 05:36:43;;;;;;;4.70;1.77;;;;;;;2.46;100.00;101138.38;5110957;28;20055;-28
2022/04/01 05:39:15;;;;;;;6.72;1.80;;;;;;;2.50;99.62;101147.03;5108797;28;20480;-32
2022/04/01 05:41:51;;;;;;;7.43;2.30;;;;;;;2.55;99.27;101144.38;5109573;28;20055;-29
2022/04/01 05:44:21;;;;;;;7.50;1.80;;;;;;;2.60;100.00;101155.53;5109048;28;20461;-24
2022/04/01 05:46:50;;;;;;;7.78;1.73;;;;;;;2.62;99.80;101162.47;5109739;28;20077;-25
2022/04/01 05:49:21;;;;;;;7.47;1.80;;;;;;;2.61;99.48;101162.69;5108309;28;20059;-27
2022/04/01 05:51:50;;;;;;;4.97;1.70;;;;;;;2.62;98.66;101169.88;5109006;28;20139;-28
2022/04/01 05:54:22;;;;;;;5.03;1.80;;;;;;;2.62;97.46;101164.38;5108484;28;20050;-24
2022/04/01 05:56:51;;;;;;;4.45;1.52;;;;;;;2.63;96.80;101166.88;5109123;28;20063;-24
2022/04/01 05:59:21;;;;;;;5.13;1.40;;;;;;;2.63;95.95;101172.41;5108581;28;20048;-27
2022/04/01 06:02:05;;;;;;;8.40;1.80;;;;;;;2.61;95.43;101174.56;5110236;28;20377;-24
2022/04/01 06:05:15;;;;;;;5.07;2.10;;;;;;;2.64;95.34;101174.09;5109352;28;20093;-26
2022/04/01 06:07:55;;;;;;;4.20;1.45;;;;;;;2.64;94.46;101178.75;5109337;28;20071;-27
2022/04/01 06:10:33;;;;;;;8.50;1.75;;;;;;;2.68;93.50;101185.47;5109086;28;20044;-25
2022/04/01 06:13:30;;;;;;;7.07;1.80;;;;;;;2.69;92.51;101199.00;5109275;28;20050;-29
2022/04/01 06:16:33;;;;;;;6.80;1.40;;;;;;;2.71;91.94;101191.34;5097735;28;20139;-28
2022/04/01 06:19:19;;;;;;;4.65;1.50;;;;;;;2.75;92.39;101192.53;5098605;28;20472;-29
2022/04/01 06:21:49;;;;;;;4.82;1.20;;;;;;;2.79;92.77;101194.81;5109515;28;20723;-28
2022/04/01 06:24:29;;;;;;;8.15;1.63;;;;;;;2.79;92.06;101205.84;5108627;28;20561;-26
2022/04/01 06:27:01;;;;;;;4.88;1.42;;;;;;;2.79;91.39;101206.69;5108522;28;20105;-31
2022/04/01 06:29:36;;;;;;;4.47;1.08;;;;;;;2.82;90.47;101208.94;5110235;28;20443;-26
2022/04/01 06:32:07;;;;;;;7.45;1.45;;;;;;;2.84;90.46;101222.47;5110774;28;20050;-31
2022/04/01 06:34:48;;;;;;;6.75;1.75;;;;;;;2.85;89.76;101224.16;5099156;28;20446;-23
2022/04/01 06:37:42;;;;;;;;;;;;;;;2.80;88.03;101208.34;5112314;28;20058;-27
2022/04/01 06:40:12;;;;;;;5.35;1.15;;;;;;;2.81;88.15;101215.53;5114758;28;20010;-27
2022/04/01 06:42:47;;;;;;;8.02;1.40;;;;;;;2.86;88.87;101221.16;5114234;28;20051;-30
2022/04/01 06:45:31;;;;;;;7.47;1.40;;;;;;;2.90;88.32;101221.53;5113763;28;20150;-27
2022/04/01 06:48:25;;;;;;;6.75;1.25;;;;;;;2.95;88.90;101227.19;5115048;28;20122;-28
2022/04/01 06:51:12;;;;;;;9.82;1.35;;;;;;;2.98;88.95;101229.47;5114780;28;20169;-25
2022/04/01 06:53:58;;;;;;;5.32;1.33;;;;;;;3.01;89.47;101240.81;5115439;28;20135;-29
2022/04/01 06:56:45;;;;;;;8.30;1.40;;;;;;;3.01;90.14;101229.78;5115484;28;20124;-24
2022/04/01 06:59:14;;;;;;;6.22;1.50;;;;;;;3.04;89.11;101240.34;5113670;28;20097;-26
2022/04/01 07:01:42;;;;;;;4.75;1.38;;;;;;;3.07;89.47;101250.06;5114022;28;20146;-25
2022/04/01 07:04:11;;;;;;;6.00;1.20;;;;;;;3.13;89.82;101237.22;5115196;28;20085;-27
2022/04/01 07:06:39;;;;;;;6.60;1.50;;;;;;;3.15;89.84;101235.06;5115223;28;20484;-26
2022/04/01 07:09:06;;;;;;;7.15;1.30;;;;;;;3.16;89.27;101254.13;5114483;28;20054;-32
2022/04/01 07:11:34;;;;;;;4.22;1.52;;;;;;;3.15;88.52;101252.47;5115027;28;20048;-26
2022/04/01 07:14:02;;;;;;;6.47;1.55;;;;;;;3.17;88.88;101249.47;5114819;27;20584;-25
2022/04/01 07:16:32;;;;;;;5.65;1.40;;;;;;;3.23;88.18;101242.97;5113157;28;20065;-27
2022/04/01 07:19:01;;;;;;;6.40;1.10;;;;;;;3.27;87.94;101244.16;5114381;28;20044;-29
2022/04/01 07:21:29;;;;;;;6.35;1.88;;;;;;;3.35;88.08;101257.59;5114967;28;20038;-25
2022/04/01 07:23:59;;;;;;;7.82;1.83;;;;;;;3.43;87.58;101254.44;5113808;28;20058;-30
2022/04/01 07:26:27;;;;;;;7.40;1.80;;;;;;;3.50;86.41;101255.16;5114701;28;20044;-26
2022/04/01 07:28:55;;;;;;;5.93;1.40;;;;;;;3.60;86.56;101260.06;5114236;28;20134;-29
2022/04/01 07:34:39;;;;;;;5.10;1.25;;;;;;;3.78;85.73;101252.47;5113568;28;20043;-26
2022/04/01 07:37:08;;;;;;;6.50;1.30;;;;;;;3.91;84.98;101262.38;5113661;28;20491;-28
2022/04/01 07:39:37;;;;;;;5.80;1.20;;;;;;;4.06;85.32;101257.16;5114514;28;20050;-27
2022/04/01 07:42:05;;;;;;;6.55;1.42;;;;;;;4.25;85.43;101266.06;5114190;28;20090;-32
2022/04/01 07:44:33;;;;;;;6.95;1.15;;;;;;;4.40;84.65;101265.50;5113659;28;20047;-28
2022/04/01 07:47:02;;;;;;;5.03;1.40;;;;;;;4.42;82.89;101263.34;5113852;28;20047;-30
2022/04/01 07:49:30;;;;;;;5.63;1.08;;;;;;;4.35;81.85;101266.28;5113730;28;20109;-29
2022/04/01 07:52:20;;;;;;;7.43;1.58;;;;;;;4.31;82.66;101273.38;5102900;28;20523;-26
2022/04/01 07:54:50;;;;;;;6.57;1.45;;;;;;;4.35;83.15;101284.78;5114315;28;20052;-33
2022/04/01 07:57:19;;;;;;;5.47;1.40;;;;;;;4.39;82.92;101292.31;5114050;28;20139;-32
2022/04/01 07:59:48;;;;;;;5.82;1.35;;;;;;;4.38;81.91;101293.41;5112625;28;20043;-26
2022/04/01 08:02:18;;;;;;;4.82;1.25;;;;;;;4.33;81.17;101298.84;5113081;28;20048;-27
2022/04/01 08:04:46;;;;;;;6.68;1.20;;;;;;;4.25;81.72;101290.09;5111473;28;20055;-28
2022/04/01 08:07:15;;;;;;;7.55;1.30;;;;;;;4.18;82.10;101295.78;5111279;28;20112;-24
2022/04/01 08:09:43;;;;;;;5.15;1.10;;;;;;;4.10;81.67;101299.75;5113099;28;20044;-26
2022/04/01 08:12:11;;;;;;;7.70;1.40;;;;;;;4.05;82.49;101296.06;5110105;28;20377;-24
2022/04/01 08:14:40;;;;;;;6.22;1.20;;;;;;;4.03;82.30;101293.53;5113682;28;20055;-28
2022/04/01 08:17:11;;;;;;;4.47;1.10;;;;;;;4.05;83.19;101307.09;5112436;28;20062;-25
2022/04/01 08:19:41;;;;;;;4.63;1.27;;;;;;;4.04;83.30;101295.22;5112441;28;20050;-27
2022/04/01 08:22:10;;;;;;;5.80;1.48;;;;;;;4.04;84.41;101302.66;5113720;27;20139;-30
2022/04/01 08:24:38;;;;;;;2.63;1.20;;;;;;;4.22;85.45;101296.94;5113411;28;20040;-26
2022/04/01 08:27:06;;;;;;;5.60;1.40;;;;;;;4.57;84.97;101309.78;5112417;28;20048;-27
2022/04/01 08:29:36;;;;;;;7.00;1.48;;;;;;;4.91;82.61;101305.94;5113277;28;20095;-28
2022/04/01 08:32:06;;;;;;;5.90;1.50;;;;;;;5.09;80.71;101308.47;5113161;28;20051;-25
2022/04/01 08:34:34;;;;;;;5.50;1.10;;;;;;;5.13;79.67;101319.88;5112321;28;20040;-35
2022/04/01 08:37:05;;;;;;;4.82;1.50;;;;;;;5.01;79.27;101328.22;5113210;28;20040;-29
2022/04/01 08:39:33;;;;;;;7.28;1.40;;;;;;;4.91;80.28;101328.06;5112300;27;20500;-26
2022/04/01 08:42:04;;;;;;;5.05;1.25;;;;;;;4.92;82.11;101331.69;5110963;28;20055;-32
2022/04/01 08:44:32;;;;;;;5.47;1.20;;;;;;;4.92;82.75;101335.28;5111491;28;20488;-28
2022/04/01 08:47:00;;;;;;;5.10;1.17;;;;;;;4.85;83.27;101338.19;5112110;28;20043;-29
2022/04/01 08:49:27;;;;;;;7.03;1.48;;;;;;;4.72;83.86;101346.81;5112977;28;20046;-31
2022/04/01 08:51:56;;;;;;;7.20;1.50;;;;;;;4.59;84.79;101352.66;5113071;28;20055;-29
2022/04/01 08:54:25;;;;;;;9.93;1.55;;;;;;;4.48;85.58;101383.94;5112230;28;20044;-31
2022/04/01 08:56:53;;;;;;;4.43;1.05;;;;;;;4.24;85.28;101377.63;5112884;28;20126;-29
2022/04/01 08:59:20;;;;;;;6.97;1.10;;;;;;;4.07;86.77;101368.44;5101533;28;20044;-28
2022/04/01 09:01:48;;;;;;;6.13;1.30;;;;;;;4.03;87.97;101372.78;5111447;28;20051;-25
2022/04/01 09:04:17;;;;;;;6.97;1.17;;;;;;;3.99;88.97;101369.69;5112884;28;20054;-26
2022/04/01 09:06:46;;;;;;;4.45;1.15;;;;;;;3.97;89.24;101379.28;5112670;28;20035;-31
2022/04/01 09:09:26;;;;;;;8.90;1.40;;;;;;;3.96;89.60;101388.66;5108184;28;20135;-27
2022/04/01 09:12:11;;;;;;;4.88;1.27;;;;;;;3.96;90.14;101375.69;5101509;28;20390;-28
2022/04/01 09:14:40;;;;;;;5.05;1.33;;;;;;;4.04;90.51;101380.81;5111144;28;20051;-25
2022/04/01 09:17:11;;;;;;;4.80;1.17;;;;;;;4.25;89.90;101384.00;5111887;28;20053;-31
2022/04/01 09:19:47;;;;;;;4.40;1.27;;;;;;;4.34;89.32;101388.91;5110409;28;20126;-29
2022/04/01 09:22:19;;;;;;;4.88;1.48;;;;;;;4.36;88.64;101397.81;5111787;28;20044;-30
2022/04/01 09:24:55;;;;;;;;;;;;;;;4.28;87.39;101389.88;5109911;28;20044;-28
2022/04/01 09:27:41;;;;;;;6.50;1.35;;;;;;;4.22;88.72;101398.31;5112388;28;20294;-27
2022/04/01 09:30:11;;;;;;;7.28;1.30;;;;;;;4.16;89.20;101400.13;5109707;28;20123;-27
2022/04/01 09:32:41;;;;;;;5.55;1.23;;;;;;;4.10;88.89;101399.19;5101598;28;20046;-27
2022/04/01 09:35:11;;;;;;;6.30;1.00;;;;;;;4.07;88.98;101398.81;5109116;28;20074;-27
2022/04/01 09:37:40;;;;;;;4.22;1.13;;;;;;;4.07;87.43;101390.53;5111536;28;20061;-29
2022/04/01 09:40:12;;;;;;;6.75;1.30;;;;;;;4.12;86.59;101398.94;5090728;28;20047;-27
2022/04/01 09:42:39;;;;;;;8.73;1.20;;;;;;;4.23;85.83;101409.13;5091963;28;20101;-25
2022/04/01 09:45:08;;;;;;;4.55;1.10;;;;;;;4.42;86.64;101401.50;5091025;28;20040;-27
2022/04/01 09:47:38;;;;;;;5.90;1.20;;;;;;;4.61;86.14;101413.19;5092031;28;20066;-32
2022/04/01 09:50:17;;;;;;;5.53;1.25;;;;;;;4.74;84.27;101415.69;5091084;28;20389;-34
2022/04/01 09:52:46;;;;;;;7.47;1.25;;;;;;;4.91;83.80;101412.97;5091476;28;20058;-29
2022/04/01 09:55:15;;;;;;;6.68;1.65;;;;;;;5.09;81.23;101416.34;5091532;28;20374;-31
2022/04/01 09:57:43;;;;;;;6.50;1.50;;;;;;;5.52;81.49;101417.63;5091019;28;20062;-28
2022/04/01 10:00:12;;;;;;;7.78;1.65;;;;;;;5.93;79.91;101421.06;5091715;28;20050;-25
2022/04/01 10:02:40;;;;;;;5.43;1.60;;;;;;;6.10;77.88;101413.53;5091650;28;20135;-26
2022/04/01 10:05:09;;;;;;;6.88;1.60;;;;;;;6.15;75.34;101411.69;5091038;28;20052;-26
2022/04/01 10:07:37;;;;;;;5.35;1.30;;;;;;;6.29;76.06;101422.38;5091654;28;20040;-26
2022/04/01 10:10:06;;;;;;;7.18;1.30;;;;;;;6.61;77.23;101415.00;5091506;28;20116;-30
2022/04/01 10:12:42;;;;;;;7.18;1.35;;;;;;;7.05;74.50;101421.34;5093031;28;20424;-25
2022/04/01 10:15:11;;;;;;;4.78;1.20;;;;;;;7.38;72.62;101419.44;5095769;28;20044;-26
2022/04/01 10:17:55;;;;;;;5.97;1.27;;;;;;;7.76;72.43;101421.97;5095758;28;20125;-32
2022/04/01 10:20:29;;;;;;;3.85;1.10;;;;;;;8.30;72.56;101430.06;5094571;28;20048;-29
2022/04/01 10:22:57;;;;;;;4.57;1.25;;;;;;;8.69;68.10;101426.94;5095717;28;20497;-27
2022/04/01 10:25:31;;;;;;;4.20;1.20;;;;;;;8.93;67.11;101417.00;5094847;28;20052;-25
2022/04/01 10:28:02;;;;;;;5.78;1.20;;;;;;;9.14;64.81;101420.66;5095560;28;20063;-26
2022/04/01 10:30:32;;;;;;;4.65;1.00;;;;;;;9.30;63.60;101419.56;5095315;28;20138;-25
2022/04/01 10:33:00;;;;;;;3.70;0.90;;;;;;;9.49;63.14;101414.28;5094488;28;20392;-28
2022/04/01 10:35:31;;;;;;;7.57;1.20;;;;;;;9.75;62.24;101415.94;5095522;28;20046;-29
2022/04/01 10:38:18;;;;;;;5.18;1.40;;;;;;;9.99;59.29;101432.91;5095212;28;20072;-28
2022/04/01 10:40:49;;;;;;;5.95;1.20;;;;;;;10.11;59.74;101425.06;5094248;28;20190;-29
2022/04/01 10:43:20;;;;;;;4.80;1.20;;;;;;;10.17;59.46;101428.69;5095115;28;20495;-30
2022/04/01 10:46:00;;;;;;;3.92;1.02;;;;;;;10.36;58.90;101438.16;5095083;28;20485;-31
2022/04/01 10:54:01;;;;;;;5.07;1.17;;;;;;;10.27;56.66;101428.69;5094474;28;20048;-26
2022/04/01 10:56:31;;;;;;;4.95;1.00;;;;;;;10.27;55.98;101432.31;5094738;28;20048;-26
2022/04/01 10:59:07;;;;;;;4.55;0.90;;;;;;;10.31;56.03;101436.22;5095069;28;20078;-37
2022/04/01 11:01:36;;;;;;;2.25;0.90;;;;;;;10.47;56.54;101439.78;5094064;28;20036;-25
2022/04/01 11:04:28;;;;;;;4.53;0.88;;;;;;;10.50;51.34;101444.81;5094436;28;20075;-29
2022/04/01 11:06:58;;;;;;;4.07;0.90;;;;;;;10.44;54.82;101439.50;5094814;28;20054;-24
2022/04/01 11:09:38;;;;;;;4.40;1.10;;;;;;;10.56;50.63;101437.25;5093906;28;20488;-33
2022/04/01 11:12:29;;;;;;;4.43;1.05;;;;;;;10.51;50.14;101437.25;5094683;28;20055;-32
2022/04/01 11:15:29;;;;;;;4.50;1.00;;;;;;;10.47;48.95;101438.94;5094220;28;20121;-23
2022/04/01 11:18:08;;;;;;;3.55;1.35;;;;;;;10.44;51.25;101439.50;5079291;28;20048;-24
2022/04/01 11:20:39;;;;;;;4.35;1.20;;;;;;;10.44;49.40;101439.50;5094315;28;20075;-28
2022/04/01 11:23:10;;;;;;;3.17;1.00;;;;;;;10.46;50.61;101443.69;5093287;28;20139;-32
2022/04/01 11:25:55;;;;;;;3.05;0.90;;;;;;;10.29;46.55;101441.22;5094159;28;20056;-28
2022/04/01 11:28:25;;;;;;;3.40;1.10;;;;;;;10.27;50.08;101443.47;5093199;28;20067;-30
2022/04/01 11:31:09;;;;;;;4.13;0.90;;;;;;;10.33;47.59;101441.50;5094183;28;20044;-28
2022/04/01 11:33:37;;;;;;;4.85;1.05;;;;;;;10.18;47.79;101447.94;5094358;28;20044;-31
2022/04/01 11:36:07;;;;;;;3.75;1.00;;;;;;;9.95;46.18;101435.44;5093311;28;20044;-29
2022/04/01 11:38:36;;;;;;;3.28;0.80;;;;;;;9.82;46.98;101449.91;5101657;28;20076;-28
2022/04/01 11:41:04;;;;;;;3.00;0.80;;;;;;;9.87;46.91;101463.84;5114481;28;20123;-26
2022/04/01 11:43:34;;;;;;;1.98;0.77;;;;;;;9.88;45.44;101451.59;5113552;28;20135;-31
2022/04/01 11:46:05;;;;;;;3.58;0.90;;;;;;;9.88;45.79;101459.13;5114241;28;20120;-27
2022/04/01 11:48:37;;;;;;;4.50;0.85;;;;;;;9.86;45.34;101442.69;5114467;28;20389;-27
2022/04/01 11:51:08;;;;;;;3.90;0.70;;;;;;;9.70;44.83;101445.75;5113189;28;20101;-30
2022/04/01 11:53:38;;;;;;;2.53;0.70;;;;;;;9.59;45.61;101442.94;5106647;28;20133;-28
2022/04/01 11:56:08;;;;;;;5.65;1.10;;;;;;;9.61;46.27;101459.41;5114168;28;20098;-26
2022/04/01 11:58:51;;;;;;;3.65;1.00;;;;;;;9.57;46.74;101464.72;5113351;28;20497;-29
2022/04/01 12:01:20;;;;;;;4.88;1.00;;;;;;;9.60;47.14;101458.56;5114072;28;20052;-28
2022/04/01 12:03:49;;;;;;;5.18;1.10;;;;;;;9.63;48.22;101468.31;5113223;28;20043;-31
2022/04/01 12:09:08;;;;;;;3.92;1.30;;;;;;;9.72;47.11;101466.66;5106562;28;20083;-30
2022/04/01 12:11:42;;;;;;;5.20;1.00;;;;;;;9.77;46.91;101463.88;5113263;28;20040;-25